createdAt,value
2023-04-25T00:01:00.788Z,69.43
2023-04-25T00:03:28.377Z,67.69
2023-04-25T00:05:57.768Z,68.48
2023-04-25T00:08:25.994Z,67.26
2023-04-25T00:10:53.431Z,68.26
2023-04-25T00:13:21.228Z,68.70
2023-04-25T00:15:49.184Z,67.43
2023-04-25T00:18:18.784Z,67.57
2023-04-25T00:20:46.606Z,69.48
2023-04-25T00:23:18.343Z,67.67
2023-04-25T00:25:46.209Z,70.47
2023-04-25T00:28:13.920Z,66.94
2023-04-25T00:30:42.144Z,66.24
2023-04-25T00:33:10.490Z,67.43
2023-04-25T00:35:40.234Z,67.26
2023-04-25T00:38:07.606Z,65.30
2023-04-25T00:40:35.233Z,66.00
2023-04-25T00:43:02.684Z,65.61
2023-04-25T00:45:31.382Z,67.02
2023-04-25T00:47:59.044Z,64.63
2023-04-25T00:50:26.624Z,65.10
2023-04-25T00:52:56.042Z,66.03
2023-04-25T00:55:23.530Z,67.27
2023-04-25T00:57:51.153Z,69.70
2023-04-25T01:00:20.047Z,68.66
2023-04-25T01:02:48.452Z,70.39
2023-04-25T01:05:16.066Z,68.65
2023-04-25T01:07:43.514Z,67.88
2023-04-25T01:10:12.704Z,67.60
2023-04-25T01:12:40.200Z,70.45
2023-04-25T01:15:08.553Z,70.59
2023-04-25T01:17:36.530Z,68.51
2023-04-25T01:20:06.373Z,67.57
2023-04-25T01:22:36.051Z,67.71
2023-04-25T01:25:04.180Z,66.52
2023-04-25T01:27:32.269Z,66.72
2023-04-25T01:29:59.817Z,68.26
2023-04-25T01:32:27.918Z,68.21
2023-04-25T01:34:55.377Z,69.18
2023-04-25T01:37:22.822Z,67.99
2023-04-25T01:39:51.904Z,67.36
2023-04-25T01:42:20.581Z,66.17
2023-04-25T01:44:48.045Z,67.48
2023-04-25T01:47:15.443Z,66.70
2023-04-25T01:49:42.847Z,67.73
2023-04-25T01:52:18.147Z,67.23
2023-04-25T01:54:45.788Z,67.73
2023-04-25T01:57:13.463Z,69.93
2023-04-25T01:59:41.638Z,68.08
2023-04-25T02:02:09.142Z,68.22
2023-04-25T02:04:37.090Z,69.03
2023-04-25T02:07:05.709Z,70.27
2023-04-25T02:09:34.470Z,70.15
2023-04-25T02:12:02.883Z,69.84
2023-04-25T02:14:30.305Z,70.20
2023-04-25T02:16:58.278Z,69.77
2023-04-25T02:19:25.861Z,68.14
2023-04-25T02:21:53.267Z,70.31
2023-04-25T02:24:20.682Z,69.51
2023-04-25T02:26:50.508Z,70.85
2023-04-25T02:29:18.075Z,70.56
2023-04-25T02:31:45.506Z,69.23
2023-04-25T02:34:12.945Z,70.08
2023-04-25T02:36:40.652Z,71.88
2023-04-25T02:39:08.150Z,70.25
2023-04-25T02:41:35.529Z,67.28
2023-04-25T02:44:04.311Z,67.67
2023-04-25T02:46:38.954Z,69.15
2023-04-25T02:49:07.358Z,70.69
2023-04-25T02:51:34.852Z,68.43
2023-04-25T02:54:02.251Z,68.99
2023-04-25T02:56:29.636Z,68.74
2023-04-25T02:58:57.095Z,68.53
2023-04-25T03:01:25.927Z,68.75
2023-04-25T03:03:53.644Z,69.16
2023-04-25T03:06:21.428Z,68.65
2023-04-25T03:08:48.846Z,68.37
2023-04-25T03:11:16.212Z,67.36
2023-04-25T03:13:43.702Z,66.79
2023-04-25T03:16:11.135Z,66.84
2023-04-25T03:18:39.996Z,68.33
2023-04-25T03:21:07.422Z,69.32
2023-04-25T03:23:34.830Z,68.91
2023-04-25T03:26:02.219Z,68.23
2023-04-25T03:28:29.849Z,70.56
2023-04-25T03:30:57.285Z,68.13
2023-04-25T03:33:24.820Z,70.20
2023-04-25T03:35:53.975Z,70.02
2023-04-25T03:38:21.379Z,68.47
2023-04-25T03:40:48.812Z,70.13
2023-04-25T03:43:16.233Z,67.41
2023-04-25T03:45:44.485Z,69.63
2023-04-25T03:48:11.931Z,70.77
2023-04-25T03:50:39.378Z,69.82
2023-04-25T03:53:08.089Z,69.91
2023-04-25T03:55:35.696Z,69.43
2023-04-25T03:58:03.099Z,70.38
2023-04-25T04:00:30.637Z,70.06
2023-04-25T04:02:59.104Z,69.75
2023-04-25T04:05:26.880Z,69.61
2023-04-25T04:07:54.431Z,69.08
2023-04-25T04:10:23.302Z,71.20
2023-04-25T04:12:50.702Z,69.80
2023-04-25T04:15:18.239Z,69.15
2023-04-25T04:17:45.700Z,69.99
2023-04-25T04:20:13.132Z,69.41
2023-04-25T04:22:40.559Z,68.60
2023-04-25T04:25:08.754Z,67.35
2023-04-25T04:27:37.535Z,68.04
2023-04-25T04:30:05.913Z,68.94
2023-04-25T04:32:35.526Z,67.37
2023-04-25T04:35:04.562Z,66.80
2023-04-25T04:37:32.168Z,67.42
2023-04-25T04:39:59.545Z,67.60
2023-04-25T04:42:27.210Z,66.75
2023-04-25T04:44:56.322Z,70.12
2023-04-25T04:47:24.728Z,69.64
2023-04-25T04:49:52.170Z,67.53
2023-04-25T04:52:19.612Z,70.43
2023-04-25T04:54:47.001Z,66.07
2023-04-25T04:57:14.542Z,69.75
2023-04-25T04:59:41.955Z,67.94
2023-04-25T05:02:11.093Z,69.16
2023-04-25T05:04:38.641Z,68.39
2023-04-25T05:07:06.197Z,69.56
2023-04-25T05:09:33.615Z,67.30
2023-04-25T05:12:01.940Z,67.87
2023-04-25T05:14:29.572Z,68.93
2023-04-25T05:16:57.255Z,68.39
2023-04-25T05:19:26.356Z,67.26
2023-04-25T05:21:54.067Z,68.33
2023-04-25T05:24:21.469Z,68.18
2023-04-25T05:26:48.909Z,68.76
2023-04-25T05:29:16.279Z,70.64
2023-04-25T05:31:43.691Z,69.80
2023-04-25T05:34:11.110Z,69.46
2023-04-25T05:36:39.807Z,68.53
2023-04-25T05:39:07.398Z,69.94
2023-04-25T05:41:34.794Z,70.31
2023-04-25T05:44:02.216Z,68.78
2023-04-25T05:46:29.725Z,68.35
2023-04-25T05:48:57.158Z,70.84
2023-04-25T05:51:24.658Z,71.56
2023-04-25T05:53:53.690Z,68.05
2023-04-25T05:56:21.212Z,68.57
2023-04-25T05:58:48.909Z,67.57
2023-04-25T06:01:16.870Z,67.45
2023-04-25T06:03:44.887Z,67.26
2023-04-25T06:06:13.309Z,70.45
2023-04-25T06:08:40.765Z,72.79
2023-04-25T06:11:09.541Z,72.49
2023-04-25T06:13:36.991Z,71.81
2023-04-25T06:16:05.053Z,70.91
2023-04-25T06:18:32.653Z,70.32
2023-04-25T06:21:00.118Z,70.95
2023-04-25T06:23:27.641Z,72.48
2023-04-25T06:25:55.207Z,76.19
2023-04-25T06:28:25.314Z,73.17
2023-04-25T06:30:52.846Z,72.41
2023-04-25T06:33:21.149Z,70.66
2023-04-25T06:35:48.793Z,70.75
2023-04-25T06:38:17.198Z,72.58
2023-04-25T06:40:44.751Z,73.26
2023-04-25T06:43:12.194Z,73.50
2023-04-25T06:45:41.198Z,72.04
2023-04-25T06:48:08.706Z,71.41
2023-04-25T06:50:36.329Z,71.96
2023-04-25T06:53:04.058Z,69.10
2023-04-25T06:55:31.551Z,73.05
2023-04-25T06:57:58.987Z,74.75
2023-04-25T07:00:33.308Z,73.58
2023-04-25T07:03:02.441Z,75.77
2023-04-25T07:05:30.010Z,76.91
2023-04-25T07:07:58.427Z,76.44
2023-04-25T07:10:26.195Z,77.74
2023-04-25T07:12:53.753Z,75.42
2023-04-25T07:15:21.308Z,75.36
2023-04-25T07:17:48.982Z,75.33
2023-04-25T07:20:17.770Z,73.60
2023-04-25T07:22:45.374Z,74.48
2023-04-25T07:25:12.982Z,74.67
2023-04-25T07:27:40.792Z,74.76
2023-04-25T07:30:10.191Z,73.60
2023-04-25T07:32:37.693Z,74.40
2023-04-25T07:35:05.870Z,73.80
2023-04-25T07:37:34.622Z,72.19
2023-04-25T07:40:02.012Z,71.53
2023-04-25T07:42:29.452Z,72.35
2023-04-25T07:44:56.977Z,72.23
2023-04-25T07:47:24.479Z,71.44
2023-04-25T07:49:51.962Z,71.64
2023-04-25T07:52:19.385Z,72.68
2023-04-25T07:54:48.578Z,73.24
2023-04-25T07:57:16.052Z,75.10
2023-04-25T07:59:43.499Z,71.66
2023-04-25T08:02:11.029Z,69.85
2023-04-25T08:04:38.652Z,70.18
2023-04-25T08:07:06.696Z,70.26
2023-04-25T08:09:36.261Z,69.51
2023-04-25T08:12:05.602Z,69.22
2023-04-25T08:14:38.099Z,68.76
2023-04-25T08:17:06.188Z,66.63
2023-04-25T08:19:33.724Z,67.33
2023-04-25T08:22:01.179Z,64.65
2023-04-25T08:24:28.661Z,64.45
2023-04-25T08:26:56.795Z,65.74
2023-04-25T08:29:26.801Z,64.10
2023-04-25T08:31:54.643Z,64.99
2023-04-25T08:34:22.214Z,64.09
2023-04-25T08:36:49.679Z,63.93
2023-04-25T08:39:17.141Z,60.55
2023-04-25T08:41:45.219Z,63.06
2023-04-25T08:44:13.510Z,64.15
2023-04-25T08:46:42.915Z,62.40
2023-04-25T08:49:10.955Z,61.75
2023-04-25T08:51:47.540Z,61.58
2023-04-25T08:54:33.887Z,60.01
2023-04-25T08:57:04.824Z,59.90
2023-04-25T08:59:32.411Z,58.13
2023-04-25T09:02:02.524Z,56.29
2023-04-25T09:04:32.344Z,54.75
2023-04-25T09:06:59.826Z,55.25
2023-04-25T09:09:27.341Z,54.11
2023-04-25T09:11:56.524Z,55.72
2023-04-25T09:14:26.664Z,55.63
2023-04-25T09:17:03.668Z,55.42
2023-04-25T09:22:05.387Z,54.93
2023-04-25T09:24:36.949Z,55.66
2023-04-25T09:27:05.751Z,56.92
2023-04-25T09:29:34.770Z,56.87
2023-04-25T09:32:18.801Z,55.00
2023-04-25T09:34:50.477Z,53.69
2023-04-25T09:37:22.379Z,52.58
2023-04-25T09:39:51.501Z,50.04
2023-04-25T09:42:19.664Z,50.64
2023-04-25T09:44:48.763Z,50.58
2023-04-25T09:47:18.716Z,49.45
2023-04-25T09:49:46.430Z,48.81
2023-04-25T09:52:16.608Z,49.56
2023-04-25T09:54:44.129Z,49.67
2023-04-25T09:57:13.994Z,51.51
2023-04-25T09:59:45.762Z,50.68
2023-04-25T10:02:14.523Z,51.45
2023-04-25T10:04:46.704Z,51.01
2023-04-25T10:07:15.038Z,52.70
2023-04-25T10:09:42.964Z,50.70
2023-04-25T10:12:10.540Z,50.54
2023-04-25T10:14:38.100Z,50.33
2023-04-25T10:17:05.630Z,49.26
2023-04-25T10:19:33.899Z,50.07
2023-04-25T10:22:09.784Z,49.09
2023-04-25T10:24:38.254Z,49.79
2023-04-25T10:27:07.575Z,50.88
2023-04-25T10:29:34.993Z,51.08
2023-04-25T10:32:02.846Z,50.95
2023-04-25T10:34:41.857Z,49.89
2023-04-25T10:37:12.728Z,51.03
2023-04-25T10:39:42.265Z,50.01
2023-04-25T10:42:10.025Z,49.67
2023-04-25T10:44:39.990Z,50.29
2023-04-25T10:47:09.470Z,50.71
2023-04-25T10:49:38.648Z,48.23
2023-04-25T10:52:26.323Z,48.19
2023-04-25T10:54:57.453Z,47.91
2023-04-25T10:57:32.926Z,48.43
2023-04-25T11:00:01.957Z,49.68
2023-04-25T11:02:30.521Z,48.20
2023-04-25T11:04:58.156Z,48.77
2023-04-25T11:07:35.566Z,49.57
2023-04-25T11:10:05.707Z,48.52
2023-04-25T11:12:33.826Z,49.90
2023-04-25T11:15:03.079Z,52.66
2023-04-25T11:17:31.612Z,54.04
2023-04-25T11:19:59.248Z,52.89
2023-04-25T11:22:28.802Z,53.02
2023-04-25T11:24:56.319Z,51.74
2023-04-25T11:27:25.690Z,49.63
2023-04-25T11:29:53.101Z,48.00
2023-04-25T11:32:23.235Z,47.69
2023-04-25T11:34:51.348Z,48.42
2023-04-25T11:37:18.941Z,48.48
2023-04-25T11:39:48.193Z,47.81
2023-04-25T11:42:15.675Z,48.09
2023-04-25T11:44:43.254Z,47.85
2023-04-25T11:47:10.708Z,46.99
2023-04-25T11:49:38.195Z,45.94
2023-04-25T11:52:08.514Z,45.45
2023-04-25T11:54:37.787Z,45.54
2023-04-25T11:57:06.585Z,45.81
2023-04-25T11:59:34.066Z,45.95
2023-04-25T12:02:02.780Z,46.90
2023-04-25T12:04:33.236Z,45.12
2023-04-25T12:07:01.764Z,46.29
2023-04-25T12:09:33.702Z,46.51
2023-04-25T12:12:03.864Z,48.11
2023-04-25T12:14:35.136Z,49.35
2023-04-25T12:17:04.863Z,48.39
2023-04-25T12:19:34.907Z,48.69
2023-04-25T12:22:04.021Z,46.44
2023-04-25T12:24:31.940Z,46.64
2023-04-25T12:27:02.722Z,45.87
2023-04-25T12:29:41.852Z,47.87
2023-04-25T12:32:17.078Z,45.68
2023-04-25T12:34:44.635Z,45.85
2023-04-25T12:37:12.438Z,47.06
2023-04-25T12:39:40.083Z,47.59
2023-04-25T12:42:09.634Z,47.82
2023-04-25T12:44:37.576Z,47.44
2023-04-25T12:47:06.417Z,46.78
2023-04-25T12:49:35.295Z,46.61
2023-04-25T12:52:02.765Z,46.11
2023-04-25T12:54:30.645Z,45.58
2023-04-25T12:56:58.496Z,45.85
2023-04-25T12:59:25.931Z,44.81
2023-04-25T13:01:53.378Z,44.51
2023-04-25T13:04:22.135Z,46.32
2023-04-25T13:06:51.264Z,46.26
2023-04-25T13:09:18.645Z,45.13
2023-04-25T13:11:46.942Z,43.92
2023-04-25T13:14:14.574Z,46.10
2023-04-25T13:16:42.259Z,46.42
2023-04-25T13:19:12.393Z,46.90
2023-04-25T13:21:40.212Z,45.11
2023-04-25T13:24:09.155Z,44.52
2023-04-25T13:26:36.643Z,45.58
2023-04-25T13:29:04.935Z,46.60
2023-04-25T13:31:32.889Z,46.92
2023-04-25T13:34:00.484Z,49.18
2023-04-25T13:36:28.800Z,49.24
2023-04-25T13:38:56.238Z,49.40
2023-04-25T13:41:25.432Z,50.35
2023-04-25T13:43:53.181Z,50.66
2023-04-25T13:46:40.986Z,49.26
2023-04-25T13:49:12.893Z,48.79
2023-04-25T13:51:41.221Z,50.07
2023-04-25T13:54:08.769Z,49.07
2023-04-25T13:56:37.935Z,50.12
2023-04-25T13:59:05.449Z,49.45
2023-04-25T14:01:35.315Z,48.62
2023-04-25T14:04:04.730Z,49.70
2023-04-25T14:06:33.284Z,49.34
2023-04-25T14:09:01.550Z,49.60
2023-04-25T14:11:28.942Z,49.52
2023-04-25T14:13:57.640Z,48.48
2023-04-25T14:16:25.470Z,48.40
2023-04-25T14:18:53.413Z,49.29
2023-04-25T14:21:21.844Z,49.09
2023-04-25T14:23:49.600Z,48.32
2023-04-25T14:26:17.303Z,47.34
2023-04-25T14:28:44.935Z,48.37
2023-04-25T14:31:13.834Z,48.20
2023-04-25T14:33:43.644Z,48.37
2023-04-25T14:36:11.289Z,48.71
2023-04-25T14:38:38.661Z,49.47
2023-04-25T14:41:06.734Z,48.58
2023-04-25T14:43:34.150Z,48.09
2023-04-25T14:46:02.604Z,47.24
2023-04-25T14:48:32.354Z,48.24
2023-04-25T14:51:00.687Z,50.29
2023-04-25T14:53:28.827Z,52.05
2023-04-25T14:55:56.444Z,53.59
2023-04-25T14:58:23.849Z,53.69
2023-04-25T15:00:51.571Z,55.21
2023-04-25T15:03:19.695Z,56.24
2023-04-25T15:05:48.638Z,56.03
2023-04-25T15:08:16.161Z,55.89
2023-04-25T15:10:43.709Z,55.39
2023-04-25T15:13:11.498Z,55.35
2023-04-25T15:15:38.909Z,53.58
2023-04-25T15:18:06.726Z,52.49
2023-04-25T15:20:34.234Z,51.35
2023-04-25T15:23:04.473Z,51.91
2023-04-25T15:25:31.997Z,51.15
2023-04-25T15:28:00.902Z,50.34
2023-04-25T15:30:28.390Z,49.01
2023-04-25T15:32:56.309Z,49.00
2023-04-25T15:35:23.869Z,50.30
2023-04-25T15:37:51.510Z,48.85
2023-04-25T15:40:20.380Z,49.69
2023-04-25T15:42:51.490Z,51.69
2023-04-25T15:45:20.460Z,53.20
2023-04-25T15:47:48.456Z,52.55
2023-04-25T15:50:16.422Z,52.41
2023-04-25T15:52:44.646Z,51.43
2023-04-25T15:55:14.136Z,51.63
2023-04-25T15:57:42.966Z,52.80
2023-04-25T16:00:13.077Z,51.32
2023-04-25T16:02:41.738Z,50.60
2023-04-25T16:05:11.277Z,50.14
2023-04-25T16:07:39.197Z,50.55
2023-04-25T16:10:07.497Z,48.93
2023-04-25T16:12:35.036Z,49.26
2023-04-25T16:15:04.139Z,48.87
2023-04-25T16:17:33.249Z,49.28
2023-04-25T16:20:01.842Z,48.85
2023-04-25T16:22:29.501Z,47.94
2023-04-25T16:24:56.911Z,48.97
2023-04-25T16:27:24.311Z,47.17
2023-04-25T16:29:51.710Z,46.90
2023-04-25T16:32:20.670Z,47.68
2023-04-25T16:34:48.156Z,47.80
2023-04-25T16:37:15.644Z,47.90
2023-04-25T16:39:43.054Z,48.09
2023-04-25T16:42:10.625Z,47.32
2023-04-25T16:44:38.028Z,48.67
2023-04-25T16:47:06.054Z,48.92
2023-04-25T16:49:34.985Z,49.06
2023-04-25T16:52:02.423Z,48.42
2023-04-25T16:54:29.895Z,47.06
2023-04-25T16:56:58.158Z,47.44
2023-04-25T16:59:25.573Z,45.42
2023-04-25T17:01:53.082Z,47.00
2023-04-25T17:04:20.653Z,46.33
2023-04-25T17:06:49.418Z,47.92
2023-04-25T17:09:16.799Z,47.39
2023-04-25T17:11:44.242Z,49.07
2023-04-25T17:14:11.648Z,49.37
2023-04-25T17:16:40.003Z,49.05
2023-04-25T17:19:08.449Z,49.24
2023-04-25T17:21:35.907Z,48.00
2023-04-25T17:24:09.550Z,49.33
2023-04-25T17:26:37.413Z,50.75
2023-04-25T17:29:05.190Z,49.85
2023-04-25T17:31:32.666Z,49.94
2023-04-25T17:34:00.196Z,51.39
2023-04-25T17:36:27.789Z,52.65
2023-04-25T17:38:55.186Z,51.89
2023-04-25T17:41:23.925Z,54.05
2023-04-25T17:43:51.337Z,51.55
2023-04-25T17:46:18.778Z,50.71
2023-04-25T17:48:46.292Z,52.38
2023-04-25T17:51:13.686Z,52.21
2023-04-25T17:53:41.382Z,52.20
2023-04-25T17:56:19.792Z,52.73
2023-04-25T17:58:55.759Z,53.35
2023-04-25T18:01:23.526Z,53.02
2023-04-25T18:03:52.926Z,52.10
2023-04-25T18:06:20.657Z,51.25
2023-04-25T18:08:49.172Z,50.26
2023-04-25T18:11:16.950Z,50.80
2023-04-25T18:13:44.380Z,51.94
2023-04-25T18:16:13.106Z,52.62
2023-04-25T18:18:44.097Z,51.11
2023-04-25T18:21:11.733Z,52.45
2023-04-25T18:23:39.191Z,52.07
2023-04-25T18:26:06.641Z,53.07
2023-04-25T18:28:34.724Z,53.07
2023-04-25T18:31:02.378Z,56.71
2023-04-25T18:33:31.874Z,55.07
2023-04-25T18:36:00.014Z,55.57
2023-04-25T18:41:12.926Z,54.65
2023-04-25T18:43:45.580Z,56.91
2023-04-25T18:46:13.608Z,57.97
2023-04-25T18:48:42.923Z,58.77
2023-04-25T18:51:10.545Z,58.58
2023-04-25T18:53:38.289Z,59.58
2023-04-25T18:56:05.869Z,59.18
2023-04-25T18:58:33.665Z,58.00
2023-04-25T19:01:01.301Z,57.50
2023-04-25T19:03:29.432Z,56.57
2023-04-25T19:05:58.356Z,56.63
2023-04-25T19:08:26.894Z,56.44
2023-04-25T19:10:55.070Z,56.04
2023-04-25T19:13:22.478Z,54.15
2023-04-25T19:15:50.250Z,54.30
2023-04-25T19:18:17.961Z,55.55
2023-04-25T19:20:46.408Z,55.35
2023-04-25T19:23:15.118Z,54.46
2023-04-25T19:25:42.636Z,55.29
2023-04-25T19:28:12.813Z,56.29
2023-04-25T19:30:41.246Z,55.74
2023-04-25T19:33:08.773Z,55.83
2023-04-25T19:35:36.205Z,55.60
2023-04-25T19:38:03.644Z,56.04
2023-04-25T19:40:32.388Z,54.23
2023-04-25T19:42:59.770Z,56.34
2023-04-25T19:45:27.158Z,57.03
2023-04-25T19:47:55.189Z,56.69
2023-04-25T19:50:22.628Z,56.30
2023-04-25T19:52:50.025Z,56.53
2023-04-25T19:55:18.072Z,56.78
2023-04-25T19:57:47.317Z,56.89
2023-04-25T20:00:19.259Z,55.70
2023-04-25T20:02:47.759Z,55.86
2023-04-25T20:05:17.106Z,56.62
2023-04-25T20:07:44.576Z,56.81
2023-04-25T20:10:14.036Z,56.88
2023-04-25T20:12:41.466Z,56.39
2023-04-25T20:15:11.671Z,55.79
2023-04-25T20:17:39.404Z,57.37
2023-04-25T20:20:08.091Z,58.21
2023-04-25T20:22:38.599Z,57.21
2023-04-25T20:25:08.118Z,57.00
2023-04-25T20:27:37.757Z,57.65
2023-04-25T20:30:08.069Z,58.21
2023-04-25T20:32:38.864Z,58.41
2023-04-25T20:35:11.247Z,58.49
2023-04-25T20:37:38.654Z,57.87
2023-04-25T20:40:08.574Z,59.03
2023-04-25T20:42:36.490Z,57.89
2023-04-25T20:45:07.466Z,58.34
2023-04-25T20:47:35.095Z,59.55
2023-04-25T20:50:06.009Z,59.80
2023-04-25T20:52:36.575Z,59.13
2023-04-25T20:55:05.381Z,60.65
2023-04-25T20:57:33.189Z,60.53
2023-04-25T21:00:00.743Z,61.64
2023-04-25T21:02:29.382Z,61.63
2023-04-25T21:04:56.919Z,60.94
2023-04-25T21:07:26.876Z,60.71
2023-04-25T21:09:54.273Z,60.98
2023-04-25T21:12:21.663Z,61.83
2023-04-25T21:14:49.080Z,61.54
2023-04-25T21:17:16.601Z,61.78
2023-04-25T21:19:44.039Z,61.55
2023-04-25T21:22:11.574Z,62.41
2023-04-25T21:24:40.359Z,61.96
2023-04-25T21:27:07.772Z,61.74
2023-04-25T21:29:35.677Z,61.50
2023-04-25T21:32:03.495Z,62.61
2023-04-25T21:34:30.950Z,62.03
2023-04-25T21:36:58.386Z,62.65
2023-04-25T21:39:26.300Z,62.25
2023-04-25T21:41:58.204Z,62.46
2023-04-25T21:44:28.560Z,62.41
2023-04-25T21:46:55.980Z,62.03
2023-04-25T21:49:29.193Z,61.26
2023-04-25T21:51:56.775Z,62.08
2023-04-25T21:54:24.216Z,61.63
2023-04-25T21:56:51.702Z,62.84
2023-04-25T21:59:20.542Z,63.04
2023-04-25T22:01:48.483Z,62.27
2023-04-25T22:04:16.104Z,61.75
2023-04-25T22:06:43.747Z,61.65
2023-04-25T22:09:11.168Z,71.99
2023-04-25T22:11:38.567Z,81.90
2023-04-25T22:14:05.962Z,77.42
2023-04-25T22:16:34.765Z,75.00
2023-04-25T22:19:02.173Z,73.22
2023-04-25T22:21:29.570Z,72.29
2023-04-25T22:23:57.596Z,68.97
2023-04-25T22:26:25.371Z,68.48
2023-04-25T22:28:53.145Z,64.41
2023-04-25T22:31:23.348Z,64.06
2023-04-25T22:33:52.222Z,56.30
2023-04-25T22:36:19.631Z,56.33
2023-04-25T22:38:47.503Z,59.72
2023-04-25T22:41:14.909Z,60.17
2023-04-25T22:43:42.336Z,60.34
2023-04-25T22:46:16.773Z,62.29
2023-04-25T22:48:44.676Z,62.25
2023-04-25T22:51:13.973Z,62.49
2023-04-25T22:53:42.720Z,61.79
2023-04-25T22:56:11.272Z,62.01
2023-04-25T22:58:39.610Z,63.50
2023-04-25T23:01:07.279Z,63.57
2023-04-25T23:03:34.978Z,62.73
2023-04-25T23:06:02.742Z,62.89
2023-04-25T23:08:31.484Z,62.32
2023-04-25T23:10:59.155Z,62.21
2023-04-25T23:13:26.701Z,64.05
2023-04-25T23:15:54.100Z,65.37
2023-04-25T23:18:21.553Z,64.15
2023-04-25T23:20:48.920Z,64.92
2023-04-25T23:23:16.997Z,66.99
2023-04-25T23:25:46.165Z,65.81
2023-04-25T23:28:13.537Z,68.23
2023-04-25T23:30:41.022Z,66.79
2023-04-25T23:33:08.586Z,66.67
2023-04-25T23:35:36.915Z,66.81
2023-04-25T23:38:04.323Z,65.62
2023-04-25T23:40:31.913Z,65.38
2023-04-25T23:43:02.194Z,65.87
2023-04-25T23:45:30.189Z,68.42
2023-04-25T23:47:57.626Z,67.23
2023-04-25T23:50:25.078Z,65.56
2023-04-25T23:52:52.455Z,64.42
2023-04-25T23:55:20.173Z,67.04
2023-04-25T23:57:48.478Z,65.00
